createdAt,value
2022-11-26T00:02:29.988Z,5.28
2022-11-26T00:04:58.921Z,8.95
2022-11-26T00:07:29.645Z,5.75
2022-11-26T00:09:58.653Z,4.00
2022-11-26T00:12:28.599Z,3.67
2022-11-26T00:14:55.758Z,4.75
2022-11-26T00:17:23.325Z,9.73
2022-11-26T00:19:50.539Z,3.33
2022-11-26T00:22:32.504Z,4.00
2022-11-26T00:24:59.715Z,6.20
2022-11-26T00:27:28.412Z,5.35
2022-11-26T00:29:55.691Z,4.05
2022-11-26T00:32:25.371Z,8.97
2022-11-26T00:34:53.271Z,6.07
2022-11-26T00:37:35.949Z,5.57
2022-11-26T00:40:03.288Z,7.32
2022-11-26T00:42:30.411Z,6.37
2022-11-26T00:44:57.463Z,3.38
2022-11-26T00:47:24.584Z,3.13
2022-11-26T00:49:51.633Z,7.72
2022-11-26T00:52:33.787Z,4.03
2022-11-26T00:55:06.405Z,4.68
2022-11-26T00:57:33.623Z,4.95
2022-11-26T01:00:00.670Z,5.80
2022-11-26T01:02:27.928Z,5.65
2022-11-26T01:04:54.954Z,6.40
2022-11-26T01:07:22.108Z,7.20
2022-11-26T01:09:49.360Z,4.95
2022-11-26T01:12:16.401Z,6.85
2022-11-26T01:14:43.582Z,4.45
2022-11-26T01:17:12.053Z,4.78
2022-11-26T01:19:39.201Z,7.60
2022-11-26T01:22:06.262Z,4.55
2022-11-26T01:24:33.491Z,5.57
2022-11-26T01:27:00.571Z,5.00
2022-11-26T01:29:27.709Z,5.95
2022-11-26T01:31:54.859Z,6.20
2022-11-26T01:34:22.047Z,3.30
2022-11-26T01:36:49.113Z,6.47
2022-11-26T01:39:19.626Z,4.45
2022-11-26T01:42:07.283Z,5.05
2022-11-26T01:44:36.715Z,4.07
2022-11-26T01:47:21.517Z,4.55
2022-11-26T01:50:26.136Z,4.50
2022-11-26T01:52:59.913Z,5.43
2022-11-26T01:55:35.987Z,4.18
2022-11-26T01:58:05.711Z,3.90
2022-11-26T02:00:33.316Z,2.60
2022-11-26T02:03:01.329Z,6.60
2022-11-26T02:05:31.522Z,4.05
2022-11-26T02:07:59.185Z,3.92
2022-11-26T02:10:26.346Z,4.63
2022-11-26T02:12:53.504Z,4.55
2022-11-26T02:15:23.310Z,4.97
2022-11-26T02:18:03.870Z,9.57
2022-11-26T02:21:03.299Z,5.20
2022-11-26T02:24:04.098Z,3.20
2022-11-26T02:27:19.919Z,3.42
2022-11-26T02:30:05.453Z,3.97
2022-11-26T02:33:01.736Z,3.00
2022-11-26T02:35:41.745Z,6.25
2022-11-26T02:38:18.627Z,9.63
2022-11-26T02:40:45.727Z,4.70
2022-11-26T02:43:15.315Z,5.25
2022-11-26T02:46:05.173Z,3.83
2022-11-26T02:48:36.926Z,5.10
2022-11-26T02:51:10.014Z,2.47
2022-11-26T02:53:39.101Z,4.55
2022-11-26T02:56:14.257Z,2.97
2022-11-26T02:58:41.892Z,2.83
2022-11-26T03:01:35.300Z,3.70
2022-11-26T03:04:09.381Z,5.85
2022-11-26T03:06:38.436Z,4.30
2022-11-26T03:09:06.816Z,7.22
2022-11-26T03:11:34.393Z,5.00
2022-11-26T03:14:01.649Z,4.75
2022-11-26T03:16:28.788Z,2.57
2022-11-26T03:18:56.112Z,4.70
2022-11-26T03:21:23.300Z,8.57
2022-11-26T03:23:50.365Z,7.40
2022-11-26T03:26:17.649Z,6.05
2022-11-26T03:28:44.800Z,5.03
2022-11-26T03:31:11.873Z,7.50
2022-11-26T03:33:39.027Z,4.07
2022-11-26T03:36:06.460Z,6.18
2022-11-26T03:38:33.545Z,4.00
2022-11-26T03:41:04.902Z,5.33
2022-11-26T03:43:32.154Z,5.72
2022-11-26T03:45:59.325Z,2.67
2022-11-26T03:48:26.435Z,7.67
2022-11-26T03:50:53.488Z,12.75
2022-11-26T03:53:20.559Z,7.07
2022-11-26T03:55:47.893Z,6.75
2022-11-26T03:58:14.909Z,7.93
2022-11-26T04:00:42.053Z,6.18
2022-11-26T04:03:09.297Z,5.55
2022-11-26T04:05:36.413Z,3.00
2022-11-26T04:08:03.565Z,3.08
2022-11-26T04:10:30.750Z,6.90
2022-11-26T04:12:58.070Z,4.05
2022-11-26T04:15:25.189Z,4.20
2022-11-26T04:17:52.240Z,7.68
2022-11-26T04:20:19.406Z,6.22
2022-11-26T04:22:46.504Z,5.53
2022-11-26T04:25:13.691Z,4.80
2022-11-26T04:27:40.822Z,4.53
2022-11-26T04:30:09.238Z,6.18
2022-11-26T04:32:36.327Z,6.35
2022-11-26T04:35:03.651Z,8.93
2022-11-26T04:37:34.172Z,6.33
2022-11-26T04:40:01.457Z,9.55
2022-11-26T04:42:28.438Z,9.37
2022-11-26T04:44:55.553Z,4.40
2022-11-26T04:47:22.631Z,3.13
2022-11-26T04:49:49.827Z,3.47
2022-11-26T04:52:16.905Z,5.35
2022-11-26T04:54:44.012Z,2.17
2022-11-26T04:57:11.229Z,4.63
2022-11-26T04:59:38.444Z,3.83
2022-11-26T05:02:05.638Z,4.63
2022-11-26T05:04:32.753Z,5.57
2022-11-26T05:06:59.920Z,3.97
2022-11-26T05:09:27.296Z,4.10
2022-11-26T05:11:54.379Z,3.63
2022-11-26T05:14:21.512Z,6.53
2022-11-26T05:16:48.707Z,5.78
2022-11-26T05:19:16.366Z,6.50
2022-11-26T05:21:43.460Z,3.70
2022-11-26T05:24:10.505Z,6.07
2022-11-26T05:26:37.691Z,11.88
2022-11-26T05:29:04.850Z,6.67
2022-11-26T05:31:32.004Z,4.07
2022-11-26T05:33:59.165Z,6.20
2022-11-26T05:36:26.212Z,5.55
2022-11-26T05:38:53.481Z,8.65
2022-11-26T05:41:20.667Z,3.50
2022-11-26T05:43:47.814Z,6.30
2022-11-26T05:46:17.541Z,8.60
2022-11-26T05:48:44.976Z,5.68
2022-11-26T05:51:12.031Z,13.33
2022-11-26T05:53:39.141Z,7.97
2022-11-26T05:56:06.362Z,6.13
2022-11-26T05:58:33.422Z,6.00
2022-11-26T06:01:00.571Z,6.68
2022-11-26T06:03:27.800Z,6.95
2022-11-26T06:05:55.093Z,5.47
2022-11-26T06:08:22.134Z,6.05
2022-11-26T06:10:49.302Z,6.35
2022-11-26T06:13:16.786Z,6.40
2022-11-26T06:15:43.872Z,7.90
2022-11-26T06:18:11.057Z,5.53
2022-11-26T06:20:38.695Z,8.52
2022-11-26T06:23:05.762Z,4.72
2022-11-26T06:25:32.882Z,3.65
2022-11-26T06:28:00.036Z,4.28
2022-11-26T06:30:27.340Z,4.20
2022-11-26T06:32:54.442Z,3.53
2022-11-26T06:35:21.606Z,14.07
2022-11-26T06:37:48.770Z,5.68
2022-11-26T06:40:19.215Z,11.80
2022-11-26T06:42:53.432Z,8.38
2022-11-26T06:45:22.385Z,8.63
2022-11-26T06:47:51.629Z,5.68
2022-11-26T06:50:21.122Z,5.82
2022-11-26T06:52:54.670Z,5.00
2022-11-26T06:55:22.275Z,4.20
2022-11-26T06:57:50.933Z,5.20
2022-11-26T07:00:18.330Z,4.43
2022-11-26T07:02:45.602Z,4.20
2022-11-26T07:05:12.756Z,3.77
2022-11-26T07:07:40.135Z,6.40
2022-11-26T07:10:08.162Z,9.60
2022-11-26T07:12:35.200Z,10.30
2022-11-26T07:15:02.253Z,5.30
2022-11-26T07:17:29.640Z,5.13
2022-11-26T07:19:56.647Z,6.80
2022-11-26T07:22:23.736Z,4.18
2022-11-26T07:24:50.932Z,4.10
2022-11-26T07:27:18.050Z,6.32
2022-11-26T07:29:45.181Z,13.27
2022-11-26T07:32:12.423Z,10.60
2022-11-26T07:34:39.608Z,4.30
2022-11-26T07:37:06.849Z,3.70
2022-11-26T07:39:33.899Z,7.75
2022-11-26T07:42:01.037Z,6.05
2022-11-26T07:44:28.093Z,5.22
2022-11-26T07:46:55.249Z,7.07
2022-11-26T07:49:22.314Z,7.03
2022-11-26T07:51:49.499Z,6.70
2022-11-26T07:54:16.513Z,8.60
2022-11-26T07:56:43.573Z,5.05
2022-11-26T07:59:11.154Z,5.38
2022-11-26T08:01:38.293Z,10.75
2022-11-26T08:04:06.382Z,8.07
2022-11-26T08:06:34.210Z,7.20
2022-11-26T08:09:02.301Z,5.93
2022-11-26T08:11:32.352Z,8.82
2022-11-26T08:14:04.905Z,7.13
2022-11-26T08:16:32.629Z,5.10
2022-11-26T08:19:03.686Z,7.43
2022-11-26T08:21:30.983Z,7.35
2022-11-26T08:23:58.087Z,5.83
2022-11-26T08:26:33.500Z,4.15
2022-11-26T08:29:01.190Z,6.38
2022-11-26T08:31:28.736Z,5.70
2022-11-26T08:33:58.081Z,5.82
2022-11-26T08:36:26.371Z,4.18
2022-11-26T08:38:53.490Z,5.43
2022-11-26T08:41:21.066Z,5.18
2022-11-26T08:46:36.896Z,2.97
2022-11-26T08:49:04.787Z,3.40
2022-11-26T08:51:31.870Z,2.80
2022-11-26T08:54:02.225Z,7.93
2022-11-26T08:56:29.444Z,3.40
2022-11-26T08:58:56.506Z,8.55
2022-11-26T09:01:26.048Z,4.93
2022-11-26T09:03:56.273Z,4.28
2022-11-26T09:06:25.415Z,3.85
2022-11-26T09:08:52.561Z,5.25
2022-11-26T09:11:19.857Z,7.10
2022-11-26T09:13:46.870Z,7.33
2022-11-26T09:16:14.032Z,5.80
2022-11-26T09:18:41.186Z,2.37
2022-11-26T09:21:08.239Z,3.20
2022-11-26T09:23:35.383Z,3.67
2022-11-26T09:26:02.704Z,2.70
2022-11-26T09:28:29.817Z,5.90
2022-11-26T09:30:58.090Z,2.95
2022-11-26T09:33:25.783Z,5.20
2022-11-26T09:35:53.341Z,4.68
2022-11-26T09:38:20.451Z,5.53
2022-11-26T09:40:56.870Z,3.33
2022-11-26T09:43:36.031Z,4.20
2022-11-26T09:46:03.952Z,6.65
2022-11-26T09:48:33.762Z,4.00
2022-11-26T09:51:08.498Z,2.92
2022-11-26T09:53:40.533Z,4.53
2022-11-26T09:56:13.447Z,5.85
2022-11-26T09:58:48.531Z,4.60
2022-11-26T10:01:20.948Z,6.25
2022-11-26T10:03:48.318Z,6.32
2022-11-26T10:06:30.350Z,6.53
2022-11-26T10:09:05.877Z,4.10
2022-11-26T10:11:37.704Z,3.83
2022-11-26T10:14:23.529Z,3.17
2022-11-26T10:17:17.392Z,3.40
2022-11-26T10:20:15.564Z,3.88
2022-11-26T10:22:56.871Z,5.28
2022-11-26T10:25:29.391Z,3.70
2022-11-26T10:27:59.177Z,5.93
2022-11-26T10:30:29.143Z,6.28
2022-11-26T10:33:00.737Z,6.15
2022-11-26T10:35:29.516Z,9.15
2022-11-26T10:37:57.317Z,7.85
2022-11-26T10:40:27.153Z,7.22
2022-11-26T10:43:06.248Z,6.95
2022-11-26T10:45:37.751Z,4.93
2022-11-26T10:48:27.697Z,5.82
2022-11-26T10:50:57.750Z,5.78
2022-11-26T10:53:26.676Z,7.75
2022-11-26T10:55:57.416Z,5.07
2022-11-26T10:58:27.937Z,7.70
2022-11-26T11:00:59.126Z,3.92
2022-11-26T11:06:27.934Z,4.25
2022-11-26T11:08:55.435Z,7.72
2022-11-26T11:11:24.218Z,8.73
2022-11-26T11:13:51.827Z,7.80
2022-11-26T11:16:39.136Z,10.13
2022-11-26T11:19:21.657Z,9.68
2022-11-26T11:21:49.060Z,5.55
2022-11-26T11:24:23.687Z,13.40
2022-11-26T11:26:52.637Z,9.23
2022-11-26T11:29:33.135Z,8.63
2022-11-26T11:32:03.962Z,6.18
2022-11-26T11:34:40.637Z,16.75
2022-11-26T11:37:16.151Z,8.38
2022-11-26T11:39:43.756Z,6.50
2022-11-26T11:42:25.830Z,9.38
2022-11-26T11:44:52.981Z,6.30
2022-11-26T11:47:36.407Z,5.70
2022-11-26T11:50:38.210Z,6.75
2022-11-26T11:53:17.546Z,9.65
2022-11-26T11:55:58.092Z,7.38
2022-11-26T11:58:45.316Z,10.18
2022-11-26T12:01:48.690Z,5.55
2022-11-26T12:04:43.886Z,14.40
2022-11-26T12:07:20.090Z,9.77
2022-11-26T12:09:59.139Z,13.07
2022-11-26T12:12:31.569Z,8.82
2022-11-26T12:15:04.635Z,10.63
2022-11-26T12:17:34.659Z,14.93
2022-11-26T12:20:14.496Z,16.65
2022-11-26T12:22:46.277Z,11.20
2022-11-26T12:25:35.160Z,14.23
2022-11-26T12:28:14.228Z,46.22
2022-11-26T12:30:53.762Z,22.65
2022-11-26T12:33:27.135Z,16.42
2022-11-26T12:35:59.260Z,14.77
2022-11-26T12:38:52.346Z,16.73
2022-11-26T12:41:24.750Z,12.32
2022-11-26T12:44:04.359Z,11.30
2022-11-26T12:46:42.630Z,13.45
2022-11-26T12:49:28.488Z,17.73
2022-11-26T12:52:29.531Z,12.50
2022-11-26T12:55:05.580Z,8.77
2022-11-26T12:57:45.944Z,9.40
2022-11-26T13:00:25.301Z,8.35
2022-11-26T13:02:53.945Z,10.32
2022-11-26T13:05:29.777Z,18.13
2022-11-26T13:08:18.072Z,8.07
2022-11-26T13:11:11.306Z,12.55
2022-11-26T13:13:53.429Z,11.27
2022-11-26T13:16:35.393Z,16.52
2022-11-26T13:19:10.207Z,11.07
2022-11-26T13:21:49.872Z,6.22
2022-11-26T13:24:26.585Z,10.27
2022-11-26T13:27:20.339Z,6.97
2022-11-26T13:29:57.910Z,11.23
2022-11-26T13:32:48.129Z,9.35
2022-11-26T13:35:29.461Z,5.65
2022-11-26T13:38:13.784Z,14.27
2022-11-26T13:41:13.043Z,14.30
2022-11-26T13:44:18.307Z,8.57
2022-11-26T13:47:08.844Z,10.35
2022-11-26T13:49:55.004Z,8.27
2022-11-26T13:52:35.664Z,8.38
2022-11-26T13:55:11.920Z,7.65
2022-11-26T13:57:43.880Z,11.93
2022-11-26T14:00:14.414Z,11.82
2022-11-26T14:02:43.605Z,12.82
2022-11-26T14:05:14.419Z,8.65
2022-11-26T14:07:43.500Z,13.05
2022-11-26T14:10:35.331Z,6.57
2022-11-26T14:13:02.396Z,4.50
2022-11-26T14:15:41.768Z,7.20
2022-11-26T14:18:13.689Z,3.97
2022-11-26T14:20:59.232Z,4.32
2022-11-26T14:23:40.972Z,4.60
2022-11-26T14:26:19.088Z,6.65
2022-11-26T14:28:46.239Z,9.18
2022-11-26T14:31:15.585Z,9.33
2022-11-26T14:33:44.250Z,9.15
2022-11-26T14:36:21.392Z,14.07
2022-11-26T14:39:09.468Z,6.50
2022-11-26T14:41:42.535Z,5.63
2022-11-26T14:44:17.882Z,9.65
2022-11-26T14:46:48.328Z,8.15
2022-11-26T14:49:18.358Z,6.82
2022-11-26T14:51:47.901Z,9.40
2022-11-26T14:54:24.300Z,13.40
2022-11-26T14:56:51.401Z,9.00
2022-11-26T14:59:19.237Z,16.13
2022-11-26T15:01:46.627Z,12.55
2022-11-26T15:04:25.033Z,6.40
2022-11-26T15:06:52.229Z,12.32
2022-11-26T15:09:22.153Z,8.30
2022-11-26T15:12:11.171Z,10.15
2022-11-26T15:14:42.821Z,7.85
2022-11-26T15:17:15.801Z,7.07
2022-11-26T15:19:43.800Z,8.23
2022-11-26T15:22:34.263Z,4.82
2022-11-26T15:25:01.863Z,4.18
2022-11-26T15:27:36.106Z,8.93
2022-11-26T15:30:24.726Z,6.25
2022-11-26T15:33:10.093Z,6.00
2022-11-26T15:35:37.600Z,7.10
2022-11-26T15:38:14.400Z,9.70
2022-11-26T15:41:19.120Z,13.05
2022-11-26T15:43:50.273Z,9.80
2022-11-26T15:46:22.116Z,9.35
2022-11-26T15:48:53.746Z,12.18
2022-11-26T15:51:38.240Z,7.75
2022-11-26T15:54:38.394Z,5.72
2022-11-26T15:57:26.060Z,8.65
2022-11-26T16:02:24.967Z,5.43
2022-11-26T16:04:57.360Z,6.53
2022-11-26T16:07:27.365Z,9.20
2022-11-26T16:10:16.338Z,9.65
2022-11-26T16:12:43.497Z,4.75
2022-11-26T16:15:25.289Z,9.48
2022-11-26T16:17:53.637Z,6.95
2022-11-26T16:20:24.082Z,8.43
2022-11-26T16:22:54.228Z,9.43
2022-11-26T16:25:21.590Z,6.78
2022-11-26T16:28:13.385Z,6.53
2022-11-26T16:30:42.977Z,4.75
2022-11-26T16:33:10.196Z,5.45
2022-11-26T16:35:46.138Z,8.52
2022-11-26T16:38:21.705Z,6.15
2022-11-26T16:40:49.721Z,8.27
2022-11-26T16:43:17.330Z,7.07
2022-11-26T16:45:44.601Z,5.35
2022-11-26T16:48:24.022Z,7.25
2022-11-26T16:50:55.531Z,6.60
2022-11-26T16:53:23.586Z,8.55
2022-11-26T16:55:53.027Z,6.95
2022-11-26T16:58:32.488Z,6.97
2022-11-26T17:00:59.844Z,5.20
2022-11-26T17:03:27.830Z,5.10
2022-11-26T17:08:23.837Z,5.47
2022-11-26T17:10:50.959Z,6.90
2022-11-26T17:13:18.620Z,4.53
2022-11-26T17:15:46.148Z,10.32
2022-11-26T17:18:23.063Z,4.10
2022-11-26T17:20:51.207Z,9.60
2022-11-26T17:25:48.476Z,8.85
2022-11-26T17:28:15.713Z,7.75
2022-11-26T17:30:44.649Z,8.20
2022-11-26T17:33:12.125Z,14.32
2022-11-26T17:35:39.290Z,16.27
2022-11-26T17:38:21.140Z,10.97
2022-11-26T17:40:48.413Z,10.52
2022-11-26T17:43:15.581Z,17.55
2022-11-26T17:45:42.982Z,14.05
2022-11-26T17:48:13.111Z,18.55
2022-11-26T17:50:40.903Z,12.43
2022-11-26T17:53:08.196Z,13.45
2022-11-26T17:55:35.519Z,11.18
2022-11-26T17:58:02.564Z,13.53
2022-11-26T18:00:29.878Z,18.98
2022-11-26T18:02:57.697Z,10.23
2022-11-26T18:05:24.932Z,14.10
2022-11-26T18:07:52.136Z,15.13
2022-11-26T18:10:21.510Z,12.60
2022-11-26T18:12:49.493Z,13.98
2022-11-26T18:15:19.516Z,11.00
2022-11-26T18:17:52.388Z,14.20
2022-11-26T18:20:22.940Z,9.82
2022-11-26T18:22:52.480Z,9.88
2022-11-26T18:25:19.622Z,10.82
2022-11-26T18:27:46.950Z,11.25
2022-11-26T18:30:15.154Z,7.70
2022-11-26T18:32:42.312Z,10.35
2022-11-26T18:35:10.166Z,9.63
2022-11-26T18:37:38.695Z,6.53
2022-11-26T18:40:11.904Z,9.15
2022-11-26T18:42:39.175Z,7.70
2022-11-26T18:45:08.368Z,5.68
2022-11-26T18:47:35.451Z,5.65
2022-11-26T18:50:02.545Z,6.03
2022-11-26T18:52:29.636Z,10.20
2022-11-26T18:54:56.821Z,7.27
2022-11-26T18:57:23.933Z,6.97
2022-11-26T18:59:51.425Z,7.23
2022-11-26T19:02:18.580Z,6.53
2022-11-26T19:04:45.928Z,7.30
2022-11-26T19:07:13.365Z,7.40
2022-11-26T19:09:40.768Z,5.30
2022-11-26T19:12:08.259Z,8.27
2022-11-26T19:14:35.300Z,5.40
2022-11-26T19:17:02.590Z,11.23
2022-11-26T19:19:29.659Z,6.60
2022-11-26T19:22:00.728Z,5.15
2022-11-26T19:24:29.603Z,7.45
2022-11-26T19:29:24.067Z,5.97
2022-11-26T19:31:51.246Z,6.30
2022-11-26T19:34:18.403Z,9.40
2022-11-26T19:36:45.636Z,6.35
2022-11-26T19:39:12.656Z,9.97
2022-11-26T19:41:39.933Z,15.90
2022-11-26T19:44:07.150Z,15.77
2022-11-26T19:46:36.700Z,11.38
2022-11-26T19:49:04.085Z,20.05
2022-11-26T19:51:31.151Z,16.98
2022-11-26T19:53:58.709Z,18.38
2022-11-26T19:56:28.518Z,20.45
2022-11-26T19:58:56.100Z,16.40
2022-11-26T20:01:23.877Z,14.73
2022-11-26T20:03:51.350Z,17.42
2022-11-26T20:06:21.556Z,25.15
2022-11-26T20:08:49.797Z,24.42
2022-11-26T20:11:17.990Z,17.45
2022-11-26T20:13:47.219Z,18.70
2022-11-26T20:16:20.388Z,19.98
2022-11-26T20:18:48.187Z,20.30
2022-11-26T20:21:21.650Z,22.15
2022-11-26T20:23:50.278Z,21.48
2022-11-26T20:26:17.309Z,24.08
2022-11-26T20:28:44.918Z,22.27
2022-11-26T20:31:13.654Z,30.02
2022-11-26T20:33:41.549Z,34.00
2022-11-26T20:36:10.856Z,22.65
2022-11-26T20:38:37.923Z,23.42
2022-11-26T20:41:10.117Z,23.52
2022-11-26T20:43:37.997Z,19.38
2022-11-26T20:46:06.961Z,21.05
2022-11-26T20:48:35.602Z,22.48
2022-11-26T20:51:05.356Z,18.10
2022-11-26T20:53:34.441Z,20.20
2022-11-26T20:56:02.553Z,22.73
2022-11-26T21:00:57.053Z,27.63
2022-11-26T21:03:26.032Z,23.23
2022-11-26T21:05:53.233Z,20.95
2022-11-26T21:08:22.761Z,15.87
2022-11-26T21:10:50.493Z,14.55
2022-11-26T21:13:18.829Z,8.50
2022-11-26T21:15:46.617Z,8.93
2022-11-26T21:18:14.254Z,6.90
2022-11-26T21:20:42.830Z,7.63
2022-11-26T21:23:10.928Z,9.18
2022-11-26T21:25:39.984Z,13.38
2022-11-26T21:28:07.955Z,14.57
2022-11-26T21:33:08.790Z,11.18
2022-11-26T21:35:37.201Z,9.88
2022-11-26T21:38:05.673Z,18.15
2022-11-26T21:40:33.036Z,18.13
2022-11-26T21:43:00.258Z,11.77
2022-11-26T21:45:27.404Z,8.88
2022-11-26T21:47:54.776Z,6.63
2022-11-26T21:50:21.858Z,6.65
2022-11-26T21:52:49.105Z,8.50
2022-11-26T21:55:16.208Z,10.97
2022-11-26T21:57:43.212Z,9.00
2022-11-26T22:00:10.748Z,9.37
2022-11-26T22:02:38.043Z,10.82
2022-11-26T22:05:05.342Z,15.38
2022-11-26T22:07:32.524Z,16.10
2022-11-26T22:09:59.671Z,13.67
2022-11-26T22:12:26.989Z,9.23
2022-11-26T22:14:54.106Z,12.68
2022-11-26T22:17:21.170Z,13.02
2022-11-26T22:19:48.330Z,10.38
2022-11-26T22:22:15.409Z,9.03
2022-11-26T22:24:42.603Z,9.17
2022-11-26T22:27:10.255Z,11.83
2022-11-26T22:29:37.997Z,11.70
2022-11-26T22:32:05.205Z,12.10
2022-11-26T22:34:32.285Z,8.48
2022-11-26T22:36:59.464Z,9.67
2022-11-26T22:39:26.544Z,11.80
2022-11-26T22:41:53.674Z,10.83
2022-11-26T22:44:20.700Z,10.80
2022-11-26T22:46:47.987Z,14.33
2022-11-26T22:49:16.622Z,11.50
2022-11-26T22:51:43.869Z,16.48
2022-11-26T22:54:13.500Z,14.83
2022-11-26T22:56:40.981Z,15.35
2022-11-26T22:59:10.558Z,13.65
2022-11-26T23:01:38.368Z,12.85
2022-11-26T23:04:08.468Z,8.32
2022-11-26T23:06:36.559Z,9.63
2022-11-26T23:09:06.450Z,8.18
2022-11-26T23:11:37.060Z,8.15
2022-11-26T23:14:05.306Z,8.65
2022-11-26T23:16:32.555Z,10.40
2022-11-26T23:18:59.692Z,11.35
2022-11-26T23:21:32.577Z,7.67
2022-11-26T23:24:00.144Z,8.50
2022-11-26T23:26:32.060Z,11.07
2022-11-26T23:29:01.026Z,7.53
2022-11-26T23:31:37.562Z,14.00
2022-11-26T23:34:05.287Z,14.68
2022-11-26T23:36:33.437Z,11.48
2022-11-26T23:39:02.127Z,19.65
2022-11-26T23:41:29.693Z,23.92
2022-11-26T23:43:57.129Z,30.48
2022-11-26T23:46:27.244Z,26.60
2022-11-26T23:48:54.714Z,24.63
2022-11-26T23:51:24.740Z,27.52
2022-11-26T23:53:52.905Z,43.42
2022-11-26T23:56:29.129Z,34.00
2022-11-26T23:58:59.390Z,55.97
